createdAt,value
2022-12-19T00:01:17.457Z,14.78
2022-12-19T00:04:09.772Z,14.96
2022-12-19T00:06:59.891Z,15.09
2022-12-19T00:09:49.234Z,15.01
2022-12-19T00:12:38.688Z,15.05
2022-12-19T00:15:29.424Z,15.06
2022-12-19T00:18:18.853Z,15.25
2022-12-19T00:21:08.965Z,15.19
2022-12-19T00:23:58.968Z,15.32
2022-12-19T00:26:48.344Z,15.36
2022-12-19T00:29:37.975Z,15.42
2022-12-19T00:32:28.780Z,15.40
2022-12-19T00:35:18.602Z,15.49
2022-12-19T00:38:08.030Z,15.53
2022-12-19T00:40:57.599Z,15.64
2022-12-19T00:43:47.978Z,15.53
2022-12-19T00:46:38.069Z,15.52
2022-12-19T00:49:29.189Z,15.61
2022-12-19T00:52:18.696Z,15.57
2022-12-19T00:55:16.423Z,15.69
2022-12-19T00:58:08.464Z,15.54
2022-12-19T01:00:58.189Z,15.64
2022-12-19T01:04:18.642Z,15.70
2022-12-19T01:07:02.515Z,15.64
2022-12-19T01:09:55.107Z,15.65
2022-12-19T01:12:47.352Z,15.69
2022-12-19T01:15:40.022Z,15.70
2022-12-19T01:18:29.668Z,15.70
2022-12-19T01:21:19.032Z,15.63
2022-12-19T01:24:09.889Z,15.47
2022-12-19T01:26:59.191Z,15.51
2022-12-19T01:29:52.353Z,15.39
2022-12-19T01:32:42.398Z,15.39
2022-12-19T01:35:31.718Z,15.30
2022-12-19T01:38:22.223Z,15.21
2022-12-19T01:41:13.431Z,15.07
2022-12-19T01:44:05.941Z,15.08
2022-12-19T01:46:58.864Z,15.05
2022-12-19T01:49:48.250Z,15.09
2022-12-19T01:52:37.675Z,15.09
2022-12-19T01:55:27.876Z,15.14
2022-12-19T01:58:18.911Z,15.11
2022-12-19T02:01:08.330Z,15.14
2022-12-19T02:03:59.117Z,15.11
2022-12-19T02:06:49.753Z,15.08
2022-12-19T02:09:39.738Z,15.03
2022-12-19T02:12:32.751Z,15.05
2022-12-19T02:15:23.478Z,15.02
2022-12-19T02:18:27.282Z,14.94
2022-12-19T02:21:43.852Z,15.10
2022-12-19T02:25:07.308Z,15.08
2022-12-19T02:28:47.218Z,15.20
2022-12-19T02:31:45.403Z,15.14
2022-12-19T02:34:44.729Z,15.27
2022-12-19T02:37:42.026Z,15.34
2022-12-19T02:40:35.551Z,15.35
2022-12-19T02:43:29.757Z,15.31
2022-12-19T02:46:21.767Z,15.36
2022-12-19T02:49:17.220Z,15.40
2022-12-19T02:52:49.645Z,15.33
2022-12-19T02:55:50.027Z,15.39
2022-12-19T02:59:06.634Z,15.40
2022-12-19T03:02:03.232Z,15.40
2022-12-19T03:05:05.943Z,15.47
2022-12-19T03:08:07.187Z,15.53
2022-12-19T03:11:01.805Z,15.59
2022-12-19T03:13:58.728Z,15.57
2022-12-19T03:16:48.300Z,15.57
2022-12-19T03:19:40.110Z,15.60
2022-12-19T03:22:31.000Z,15.58
2022-12-19T03:25:23.797Z,15.60
2022-12-19T03:28:17.607Z,15.52
2022-12-19T03:31:08.222Z,15.66
2022-12-19T03:34:01.243Z,15.61
2022-12-19T03:36:55.856Z,15.61
2022-12-19T03:39:50.936Z,15.59
2022-12-19T03:42:59.694Z,15.63
2022-12-19T03:45:56.443Z,15.60
2022-12-19T03:48:48.675Z,15.64
2022-12-19T03:51:47.510Z,15.71
2022-12-19T03:54:42.128Z,15.71
2022-12-19T03:57:39.498Z,15.69
2022-12-19T04:00:30.866Z,15.81
2022-12-19T04:03:20.929Z,15.71
2022-12-19T04:06:11.974Z,15.74
2022-12-19T04:09:02.485Z,15.75
2022-12-19T04:11:55.571Z,15.82
2022-12-19T04:14:46.883Z,15.69
2022-12-19T04:17:41.323Z,15.66
2022-12-19T04:20:31.576Z,15.71
2022-12-19T04:23:26.432Z,15.72
2022-12-19T04:26:17.562Z,15.70
2022-12-19T04:29:09.203Z,15.71
2022-12-19T04:32:00.451Z,15.71
2022-12-19T04:34:49.869Z,15.76
2022-12-19T04:37:39.627Z,15.75
2022-12-19T04:40:29.302Z,15.75
2022-12-19T04:43:18.618Z,15.78
2022-12-19T04:46:08.135Z,15.83
2022-12-19T04:48:58.880Z,15.81
2022-12-19T04:51:48.374Z,15.74
2022-12-19T04:54:37.637Z,15.78
2022-12-19T04:57:26.975Z,15.73
2022-12-19T05:00:17.715Z,15.78
2022-12-19T05:03:07.070Z,15.77
2022-12-19T05:06:09.214Z,15.83
2022-12-19T05:08:58.565Z,15.92
2022-12-19T05:11:47.843Z,15.89
2022-12-19T05:14:37.301Z,15.82
2022-12-19T05:17:26.688Z,15.80
2022-12-19T05:20:16.050Z,15.90
2022-12-19T05:23:12.089Z,15.87
2022-12-19T05:26:07.749Z,15.89
2022-12-19T05:28:57.103Z,15.95
2022-12-19T05:31:46.549Z,16.02
2022-12-19T05:34:36.007Z,16.01
2022-12-19T05:37:25.300Z,16.04
2022-12-19T05:40:16.205Z,16.00
2022-12-19T05:43:05.511Z,16.01
2022-12-19T05:45:54.844Z,15.99
2022-12-19T05:48:44.225Z,15.99
2022-12-19T05:51:34.219Z,16.02
2022-12-19T05:54:23.678Z,16.12
2022-12-19T05:57:14.383Z,16.09
2022-12-19T06:00:04.202Z,16.14
2022-12-19T06:03:01.752Z,16.24
2022-12-19T06:05:51.158Z,16.34
2022-12-19T06:08:40.572Z,16.37
2022-12-19T06:11:29.924Z,16.32
2022-12-19T06:14:20.727Z,16.34
2022-12-19T06:17:10.190Z,16.33
2022-12-19T06:19:59.490Z,16.27
2022-12-19T06:22:48.836Z,16.27
2022-12-19T06:25:38.125Z,16.27
2022-12-19T06:28:29.183Z,16.24
2022-12-19T06:31:21.565Z,16.17
2022-12-19T06:34:15.347Z,16.19
2022-12-19T06:37:11.846Z,16.26
2022-12-19T06:40:01.180Z,16.08
2022-12-19T06:42:49.557Z,16.31
2022-12-19T06:45:38.939Z,16.33
2022-12-19T06:48:30.362Z,16.32
2022-12-19T06:51:19.676Z,16.27
2022-12-19T06:54:09.151Z,16.26
2022-12-19T06:56:58.592Z,16.17
2022-12-19T06:59:47.946Z,16.16
2022-12-19T07:02:37.262Z,16.06
2022-12-19T07:05:29.822Z,15.99
2022-12-19T07:08:19.117Z,16.04
2022-12-19T07:11:08.435Z,16.05
2022-12-19T07:13:57.769Z,16.03
2022-12-19T07:16:47.918Z,16.00
2022-12-19T07:19:37.668Z,15.91
2022-12-19T07:22:32.988Z,15.83
2022-12-19T07:25:22.385Z,15.81
2022-12-19T07:28:12.310Z,15.74
2022-12-19T07:31:01.612Z,15.72
2022-12-19T07:33:50.983Z,15.69
2022-12-19T07:36:40.926Z,15.77
2022-12-19T07:39:31.696Z,15.83
2022-12-19T07:42:21.516Z,15.84
2022-12-19T07:45:13.400Z,15.90
2022-12-19T07:48:03.682Z,15.95
2022-12-19T07:50:53.383Z,15.92
2022-12-19T07:53:42.661Z,15.91
2022-12-19T07:56:33.478Z,15.78
2022-12-19T07:59:28.894Z,15.76
2022-12-19T08:02:19.880Z,15.76
2022-12-19T08:05:10.347Z,15.80
2022-12-19T08:08:00.142Z,15.86
2022-12-19T08:10:49.520Z,15.98
2022-12-19T08:13:46.164Z,15.98
2022-12-19T08:16:55.635Z,15.95
2022-12-19T08:19:46.454Z,16.01
2022-12-19T08:22:36.077Z,15.91
2022-12-19T08:25:25.405Z,16.06
2022-12-19T08:28:14.760Z,16.13
2022-12-19T08:31:11.300Z,16.09
2022-12-19T08:34:00.788Z,16.23
2022-12-19T08:36:50.276Z,16.26
2022-12-19T08:39:39.619Z,16.20
2022-12-19T08:42:29.061Z,16.30
2022-12-19T08:45:18.981Z,16.27
2022-12-19T08:48:10.039Z,16.08
2022-12-19T08:51:02.185Z,16.13
2022-12-19T08:53:52.480Z,16.37
2022-12-19T08:56:46.530Z,16.29
2022-12-19T08:59:36.433Z,16.35
2022-12-19T09:02:26.657Z,16.40
2022-12-19T09:05:59.655Z,16.45
2022-12-19T09:08:29.164Z,16.46
2022-12-19T09:11:21.649Z,16.47
2022-12-19T09:14:11.008Z,16.44
2022-12-19T09:17:00.468Z,16.60
2022-12-19T09:19:53.232Z,16.63
2022-12-19T09:22:43.890Z,16.63
2022-12-19T09:25:33.370Z,16.67
2022-12-19T09:28:27.635Z,16.77
2022-12-19T09:31:21.908Z,16.72
2022-12-19T09:34:11.279Z,16.77
2022-12-19T09:37:00.682Z,16.84
2022-12-19T09:39:51.488Z,16.87
2022-12-19T09:43:07.402Z,16.90
2022-12-19T09:46:06.420Z,16.92
2022-12-19T09:48:58.198Z,16.98
2022-12-19T09:51:58.339Z,16.93
2022-12-19T09:54:55.530Z,17.05
2022-12-19T09:57:52.507Z,17.03
2022-12-19T10:00:46.359Z,17.03
2022-12-19T10:03:41.319Z,17.03
2022-12-19T10:07:16.837Z,17.03
2022-12-19T10:12:30.125Z,17.13
2022-12-19T10:13:12.968Z,17.24
2022-12-19T10:16:10.346Z,17.25
2022-12-19T10:19:06.001Z,17.19
2022-12-19T10:22:19.703Z,17.08
2022-12-19T10:25:32.517Z,17.11
2022-12-19T10:28:51.538Z,16.98
2022-12-19T10:31:53.711Z,16.82
2022-12-19T10:34:45.498Z,16.66
2022-12-19T10:37:49.659Z,16.51
2022-12-19T10:40:44.767Z,16.45
2022-12-19T10:43:46.358Z,16.39
2022-12-19T10:46:41.119Z,16.40
2022-12-19T10:49:30.979Z,16.19
2022-12-19T10:52:52.462Z,16.22
2022-12-19T10:55:46.309Z,16.21
2022-12-19T10:58:43.098Z,16.07
2022-12-19T11:01:36.487Z,16.08
2022-12-19T11:04:33.021Z,16.12
2022-12-19T11:07:23.545Z,16.00
2022-12-19T11:11:32.570Z,16.02
2022-12-19T11:18:50.141Z,16.15
2022-12-19T11:23:18.428Z,16.16
2022-12-19T11:29:19.365Z,16.09
2022-12-19T11:29:33.806Z,16.15
2022-12-19T11:30:36.678Z,16.11
2022-12-19T11:33:17.343Z,16.04
2022-12-19T11:36:08.135Z,16.01
2022-12-19T11:38:58.426Z,16.00
2022-12-19T11:42:00.265Z,15.88
2022-12-19T11:44:57.092Z,15.91
2022-12-19T11:47:54.205Z,15.97
2022-12-19T11:50:57.389Z,16.13
2022-12-19T11:53:57.683Z,16.41
2022-12-19T11:56:47.164Z,16.55
2022-12-19T11:59:38.571Z,16.59
2022-12-19T12:03:22.894Z,16.37
2022-12-19T12:06:17.710Z,16.41
2022-12-19T12:12:37.652Z,16.47
2022-12-19T12:17:54.525Z,16.15
2022-12-19T12:29:47.074Z,16.79
2022-12-19T12:30:49.318Z,16.25
2022-12-19T12:31:39.009Z,16.91
2022-12-19T12:31:50.448Z,17.00
2022-12-19T12:31:55.328Z,17.07
2022-12-19T12:35:51.826Z,16.62
2022-12-19T12:39:44.211Z,16.48
2022-12-19T12:42:52.576Z,16.46
2022-12-19T12:45:45.025Z,16.52
2022-12-19T12:48:43.719Z,16.54
2022-12-19T12:51:37.227Z,16.65
2022-12-19T12:54:33.598Z,16.73
2022-12-19T12:57:37.325Z,16.73
2022-12-19T13:00:30.263Z,16.50
2022-12-19T13:03:20.854Z,16.58
2022-12-19T13:06:28.080Z,16.59
2022-12-19T13:09:29.252Z,16.56
2022-12-19T13:12:43.572Z,16.39
2022-12-19T13:15:42.927Z,16.52
2022-12-19T13:18:38.692Z,16.47
2022-12-19T13:21:48.028Z,16.35
2022-12-19T13:24:43.078Z,16.56
2022-12-19T13:27:41.907Z,16.51
2022-12-19T13:31:12.027Z,16.48
2022-12-19T13:33:49.397Z,16.33
2022-12-19T13:39:49.182Z,15.72
2022-12-19T13:40:32.563Z,15.30
2022-12-19T13:43:46.028Z,14.86
2022-12-19T13:46:43.291Z,14.47
2022-12-19T13:49:35.551Z,14.54
2022-12-19T13:52:24.915Z,14.34
2022-12-19T13:55:16.398Z,14.24
2022-12-19T13:58:06.444Z,14.13
2022-12-19T14:00:59.853Z,13.95
2022-12-19T14:03:50.323Z,13.97
2022-12-19T14:06:46.309Z,13.91
2022-12-19T14:11:28.817Z,13.79
2022-12-19T14:13:52.941Z,13.79
2022-12-19T14:16:20.150Z,13.78
2022-12-19T14:19:22.812Z,13.68
2022-12-19T14:22:20.677Z,13.71
2022-12-19T14:28:15.196Z,13.72
2022-12-19T14:28:32.520Z,13.58
2022-12-19T14:31:22.643Z,13.59
2022-12-19T14:39:19.451Z,13.54
2022-12-19T14:41:09.024Z,13.58
2022-12-19T14:52:25.121Z,13.24
2022-12-19T14:52:51.264Z,13.51
2022-12-19T14:54:26.361Z,13.35
2022-12-19T14:58:50.690Z,13.25
2022-12-19T15:01:10.243Z,13.33
2022-12-19T15:04:52.575Z,13.35
2022-12-19T15:07:17.602Z,13.33
2022-12-19T15:11:06.385Z,13.19
2022-12-19T15:14:48.068Z,13.09
2022-12-19T15:16:38.335Z,13.10
2022-12-19T15:19:27.981Z,13.00
2022-12-19T15:22:18.871Z,13.08
2022-12-19T15:25:36.095Z,13.13
2022-12-19T15:28:40.296Z,13.12
2022-12-19T15:31:35.693Z,13.00
2022-12-19T15:34:39.159Z,12.98
2022-12-19T15:37:30.080Z,12.98
2022-12-19T15:40:21.303Z,12.87
2022-12-19T15:43:53.036Z,12.69
2022-12-19T15:46:32.159Z,12.65
2022-12-19T15:49:23.947Z,12.52
2022-12-19T15:52:19.042Z,12.40
2022-12-19T15:55:13.589Z,12.56
2022-12-19T15:58:07.615Z,12.50
2022-12-19T16:01:03.274Z,12.48
2022-12-19T16:03:53.313Z,12.40
2022-12-19T16:06:42.943Z,12.30
2022-12-19T16:09:33.777Z,12.25
2022-12-19T16:12:35.675Z,12.25
2022-12-19T16:15:29.607Z,12.24
2022-12-19T16:18:19.770Z,12.22
2022-12-19T16:21:18.577Z,12.10
2022-12-19T16:24:08.836Z,12.11
2022-12-19T16:27:00.536Z,12.07
2022-12-19T16:29:50.645Z,12.00
2022-12-19T16:32:41.389Z,12.06
2022-12-19T16:38:40.691Z,11.79
2022-12-19T16:41:30.000Z,11.86
2022-12-19T16:44:22.584Z,11.83
2022-12-19T16:47:15.758Z,11.71
2022-12-19T16:50:17.891Z,11.78
2022-12-19T16:53:07.235Z,11.73
2022-12-19T16:55:58.087Z,11.72
2022-12-19T16:58:47.594Z,11.59
2022-12-19T17:01:38.239Z,11.63
2022-12-19T17:04:30.146Z,11.58
2022-12-19T17:07:21.164Z,11.57
2022-12-19T17:10:11.711Z,11.61
2022-12-19T17:13:03.272Z,11.58
2022-12-19T17:15:57.088Z,11.16
2022-12-19T17:18:48.803Z,11.53
2022-12-19T17:21:38.113Z,11.54
2022-12-19T17:24:29.193Z,11.52
2022-12-19T17:27:19.376Z,11.57
2022-12-19T17:30:10.716Z,11.44
2022-12-19T17:33:00.401Z,11.36
2022-12-19T17:35:50.188Z,11.47
2022-12-19T17:38:39.728Z,11.42
2022-12-19T17:41:30.602Z,11.36
2022-12-19T17:44:20.533Z,11.40
2022-12-19T17:47:14.227Z,11.32
2022-12-19T17:50:03.798Z,11.34
2022-12-19T17:52:53.730Z,11.37
2022-12-19T17:55:43.842Z,11.32
2022-12-19T17:58:34.574Z,11.45
2022-12-19T18:01:25.890Z,11.49
2022-12-19T18:04:17.726Z,11.52
2022-12-19T18:07:14.235Z,11.56
2022-12-19T18:10:03.625Z,11.60
2022-12-19T18:12:53.734Z,11.53
2022-12-19T18:15:44.684Z,11.63
2022-12-19T18:18:37.076Z,11.53
2022-12-19T18:21:26.560Z,11.54
2022-12-19T18:24:16.779Z,11.46
2022-12-19T18:27:06.197Z,11.24
2022-12-19T18:29:55.662Z,11.00
2022-12-19T18:32:50.431Z,10.96
2022-12-19T18:35:43.254Z,10.83
2022-12-19T18:38:33.057Z,10.82
2022-12-19T18:41:23.707Z,10.74
2022-12-19T18:44:13.395Z,10.70
2022-12-19T18:47:03.113Z,10.68
2022-12-19T18:49:54.429Z,10.60
2022-12-19T18:52:43.963Z,10.45
2022-12-19T18:55:33.372Z,10.63
2022-12-19T18:58:22.906Z,10.59
2022-12-19T19:01:16.670Z,10.47
2022-12-19T19:04:07.406Z,10.47
2022-12-19T19:06:58.505Z,10.53
2022-12-19T19:09:47.915Z,10.45
2022-12-19T19:12:57.325Z,10.35
2022-12-19T19:15:51.400Z,10.45
2022-12-19T19:18:43.056Z,10.39
2022-12-19T19:21:36.409Z,10.50
2022-12-19T19:24:27.240Z,10.31
2022-12-19T19:27:16.640Z,10.39
2022-12-19T19:30:08.651Z,10.36
2022-12-19T19:33:05.129Z,10.39
2022-12-19T19:35:59.898Z,10.33
2022-12-19T19:38:53.305Z,10.15
2022-12-19T19:41:44.178Z,10.28
2022-12-19T19:44:33.765Z,10.13
2022-12-19T19:47:28.375Z,10.22
2022-12-19T19:50:18.472Z,10.32
2022-12-19T19:53:07.971Z,10.31
2022-12-19T19:55:57.918Z,10.33
2022-12-19T19:58:48.909Z,10.25
2022-12-19T20:01:38.477Z,10.22
2022-12-19T20:04:27.885Z,10.18
2022-12-19T20:07:17.541Z,10.20
2022-12-19T20:10:09.554Z,10.16
2022-12-19T20:12:58.957Z,10.22
2022-12-19T20:15:50.327Z,10.11
2022-12-19T20:18:42.396Z,10.20
2022-12-19T20:21:33.751Z,10.12
2022-12-19T20:24:23.328Z,10.12
2022-12-19T20:27:13.013Z,10.16
2022-12-19T20:30:02.415Z,10.13
2022-12-19T20:32:53.299Z,10.01
2022-12-19T20:35:43.111Z,10.10
2022-12-19T20:38:32.607Z,10.12
2022-12-19T20:41:22.192Z,10.04
2022-12-19T20:44:11.827Z,10.06
2022-12-19T20:47:01.614Z,10.13
2022-12-19T20:49:52.593Z,10.06
2022-12-19T20:52:42.262Z,10.19
2022-12-19T20:55:31.657Z,10.06
2022-12-19T20:58:21.586Z,10.09
2022-12-19T21:01:14.483Z,10.06
2022-12-19T21:04:04.390Z,10.14
2022-12-19T21:06:55.615Z,10.12
2022-12-19T21:09:45.339Z,10.18
2022-12-19T21:12:34.697Z,10.09
2022-12-19T21:15:24.434Z,9.98
2022-12-19T21:18:14.012Z,10.13
2022-12-19T21:21:03.445Z,10.18
2022-12-19T21:23:55.318Z,10.16
2022-12-19T21:26:45.295Z,10.06
2022-12-19T21:29:34.638Z,10.21
2022-12-19T21:32:24.195Z,10.15
2022-12-19T21:35:14.195Z,10.21
2022-12-19T21:38:04.204Z,10.17
2022-12-19T21:40:55.108Z,10.12
2022-12-19T21:43:45.064Z,10.15
2022-12-19T21:46:35.199Z,10.16
2022-12-19T21:49:24.662Z,10.21
2022-12-19T21:52:14.024Z,10.15
2022-12-19T21:55:03.408Z,10.21
2022-12-19T21:57:54.171Z,10.22
2022-12-19T22:00:43.589Z,10.09
2022-12-19T22:03:33.131Z,10.18
2022-12-19T22:06:28.201Z,10.19
2022-12-19T22:09:21.184Z,10.30
2022-12-19T22:12:12.508Z,10.28
2022-12-19T22:15:03.255Z,10.19
2022-12-19T22:17:52.724Z,10.20
2022-12-19T22:20:43.867Z,10.25
2022-12-19T22:23:33.951Z,10.28
2022-12-19T22:26:24.911Z,10.22
2022-12-19T22:29:17.078Z,10.38
2022-12-19T22:32:07.970Z,10.32
2022-12-19T22:34:57.445Z,10.27
2022-12-19T22:37:46.783Z,10.29
2022-12-19T22:40:36.712Z,10.36
2022-12-19T22:43:26.164Z,10.35
2022-12-19T22:46:18.325Z,10.38
2022-12-19T22:49:11.873Z,10.27
2022-12-19T22:52:01.268Z,10.34
2022-12-19T22:54:50.591Z,10.47
2022-12-19T22:57:39.920Z,10.36
2022-12-19T23:00:29.287Z,10.52
2022-12-19T23:03:18.761Z,10.45
2022-12-19T23:06:10.075Z,10.42
2022-12-19T23:08:59.398Z,10.35
2022-12-19T23:11:50.759Z,10.50
2022-12-19T23:14:40.140Z,10.53
2022-12-19T23:17:30.129Z,10.52
2022-12-19T23:20:19.613Z,10.38
2022-12-19T23:23:10.857Z,10.48
2022-12-19T23:26:00.267Z,10.40
2022-12-19T23:28:54.354Z,10.48
2022-12-19T23:31:45.394Z,10.51
2022-12-19T23:34:34.909Z,10.56
2022-12-19T23:37:24.387Z,10.03
2022-12-19T23:40:15.311Z,10.60
2022-12-19T23:43:05.202Z,10.62
2022-12-19T23:45:54.881Z,10.56
2022-12-19T23:48:45.551Z,10.50
2022-12-19T23:51:34.938Z,10.57
2022-12-19T23:54:24.405Z,10.58
2022-12-19T23:57:15.212Z,10.58
